Terminal Aerodrome Forecast
Issued by NWS Bismarck, ND

Home | Current Version | Previous Version | Text Only | Print | Product List | Glossary Off
Versions: 1 2 3 4 5 6 7 8 9 10 11 12 13 14 15

000
FTUS43 KBIS 020038 AAA
TAFISN
TAF AMD
KISN 020038Z 0201/0224 24012KT P6SM SCT200
     FM020200 19007KT P6SM SCT150
     FM021600 27016G26KT P6SM SCT120=

USA.gov is the U.S. government's official web portal to all federal, state and local government web resources and services.